Time;durP1;ratioP1;P1;durP2;ratioP2;P2;SDS_P1;SDS_P2;PMS_P1;PMS_P2;Temp;Humidity;BMP_temperature;BMP_pressure;BME280_temperature;BME280_humidity;BME280_pressure;Samples;Min_cycle;Max_cycle;Signal;HPM_P1;HPM_P2
2023/09/20 05:46:25;;;;;;;;;;;;;;;19.53;68.04;96755.47;4246497;27;10301;-65
2023/09/20 05:48:28;;;;;;;;;;;;;;;19.80;67.71;96752.84;4247985;27;6272;-66
2023/09/20 05:50:34;;;;;;;;;;;;;;;20.03;67.10;96757.09;4240052;27;5619;-66
2023/09/20 05:52:40;;;;;;;;;;;;;;;20.22;66.49;96755.66;4233890;27;5677;-67
2023/09/20 05:54:43;;;;;;;;;;;;;;;20.37;66.20;96738.88;4248632;27;5769;-67
2023/09/20 05:56:46;;;;;;;;;;;;;;;20.49;65.80;96744.09;4248456;27;5687;-66
2023/09/20 05:58:49;;;;;;;;;;;;;;;20.60;65.58;96741.22;4242761;27;6465;-66
2023/09/20 06:00:52;;;;;;;;;;;;;;;20.69;65.49;96749.63;4235757;27;5117;-66
2023/09/20 06:02:57;;;;;;;;;;;;;;;20.78;64.79;96744.56;4227275;28;5857;-66
2023/09/20 06:05:00;;;;;;;;;;;;;;;20.84;64.74;96736.31;4237824;27;5159;-66
2023/09/20 06:07:04;;;;;;;;;;;;;;;20.90;64.30;96739.81;4245637;27;5749;-66
2023/09/20 06:09:08;;;;;;;;;;;;;;;20.96;63.84;96744.16;4247340;27;5731;-66
2023/09/20 06:11:11;;;;;;;;;;;;;;;21.00;63.73;96739.06;4240019;27;5713;-66
2023/09/20 06:13:14;;;;;;;;;;;;;;;21.04;63.45;96729.41;4247941;27;5643;-66
2023/09/20 06:15:16;;;;;;;;;;;;;;;21.08;63.33;96733.22;4239589;27;5586;-67
2023/09/20 06:17:19;;;;;;;;;;;;;;;21.11;63.41;96740.75;4248045;27;5601;-66
2023/09/20 06:19:30;;;;;;;;;;;;;;;21.13;63.26;96727.84;4248045;27;6351;-66
2023/09/20 06:21:33;;;;;;;;;;;;;;;21.15;62.80;96734.56;4247976;27;5614;-66
2023/09/20 06:23:36;;;;;;;;;;;;;;;21.19;63.13;96743.75;4240952;27;5632;-66
2023/09/20 06:25:39;;;;;;;;;;;;;;;21.21;62.88;96735.41;4247556;27;5706;-66
2023/09/20 06:27:42;;;;;;;;;;;;;;;21.23;62.60;96736.75;4247219;27;5858;-66
2023/09/20 06:29:44;;;;;;;;;;;;;;;21.26;62.71;96738.16;4239009;27;5643;-66
2023/09/20 06:31:46;;;;;;;;;;;;;;;21.28;62.57;96736.00;4248140;27;6344;-66
2023/09/20 06:33:49;;;;;;;;;;;;;;;21.29;62.42;96743.00;4247943;27;5809;-67
2023/09/20 06:35:55;;;;;;;;;;;;;;;21.30;62.02;96746.53;4238211;27;5651;-66
2023/09/20 06:37:58;;;;;;;;;;;;;;;21.30;62.25;96738.44;4246880;27;5647;-66
2023/09/20 06:40:01;;;;;;;;;;;;;;;21.31;61.64;96750.81;4246373;27;6422;-66
2023/09/20 06:42:04;;;;;;;;;;;;;;;21.31;61.55;96750.81;4242298;27;6292;-66
2023/09/20 06:44:07;;;;;;;;;;;;;;;21.30;61.51;96744.63;4237414;27;5651;-67
2023/09/20 06:46:10;;;;;;;;;;;;;;;21.32;61.57;96747.06;4243107;27;6538;-67
2023/09/20 06:48:13;;;;;;;;;;;;;;;21.32;61.61;96760.50;4228685;28;7340;-66
2023/09/20 06:50:15;;;;;;;;;;;;;;;21.33;61.17;96762.91;4234713;28;5626;-67
2023/09/20 06:52:22;;;;;;;;;;;;;;;21.33;61.12;96771.00;4227527;28;6526;-69
2023/09/20 06:54:26;;;;;;;;;;;;;;;21.34;61.44;96763.72;4235388;28;5607;-70
2023/09/20 06:56:29;;;;;;;;;;;;;;;21.37;61.09;96766.69;4235979;28;5088;-70
2023/09/20 06:58:34;;;;;;;;;;;;;;;21.39;61.14;96766.44;4228836;28;5655;-67
2023/09/20 07:00:36;;;;;;;;;;;;;;;21.42;61.01;96757.84;4226090;28;5605;-67
2023/09/20 07:02:39;;;;;;;;;;;;;;;21.43;60.98;96765.66;4236163;28;5609;-67
2023/09/20 07:04:44;;;;;;;;;;;;;;;21.45;60.54;96763.50;4235361;28;5967;-67
2023/09/20 07:06:47;;;;;;;;;;;;;;;21.47;60.70;96761.38;4236208;28;5766;-67
2023/09/20 07:08:51;;;;;;;;;;;;;;;21.47;60.16;96761.38;4223777;27;5625;-68
2023/09/20 07:10:54;;;;;;;;;;;;;;;21.51;60.59;96758.94;4219507;28;5624;-67
2023/09/20 07:12:57;;;;;;;;;;;;;;;21.51;60.50;96751.69;4219282;28;5622;-66
2023/09/20 07:14:59;;;;;;;;;;;;;;;21.53;59.98;96753.34;4219365;28;6424;-67
2023/09/20 07:17:03;;;;;;;;;;;;;;;21.56;60.22;96752.78;4219415;28;5648;-67
2023/09/20 07:19:06;;;;;;;;;;;;;;;21.58;60.17;96756.03;4233814;28;5590;-69
2023/09/20 07:21:10;;;;;;;;;;;;;;;21.60;59.72;96764.63;4235799;28;5764;-67
2023/09/20 07:23:15;;;;;;;;;;;;;;;21.61;59.77;96758.97;4236218;28;5597;-67
2023/09/20 07:25:21;;;;;;;;;;;;;;;21.62;59.53;96767.88;4236269;28;5597;-67
2023/09/20 07:27:24;;;;;;;;;;;;;;;21.64;59.88;96765.75;4236057;28;5625;-67
2023/09/20 07:29:27;;;;;;;;;;;;;;;21.66;59.44;96763.59;4236132;28;5602;-67
2023/09/20 07:31:30;;;;;;;;;;;;;;;21.68;59.46;96769.50;4236095;28;5662;-67
2023/09/20 07:33:33;;;;;;;;;;;;;;;21.69;59.44;96763.06;4236130;28;6327;-66
2023/09/20 07:35:38;;;;;;;;;;;;;;;21.72;59.69;96767.91;4235632;28;5602;-66
2023/09/20 07:37:43;;;;;;;;;;;;;;;21.74;59.21;96765.75;4236024;28;5723;-66
2023/09/20 07:39:47;;;;;;;;;;;;;;;21.73;59.21;96770.31;4222996;28;5983;-67
2023/09/20 07:41:51;;;;;;;;;;;;;;;21.75;59.37;96762.81;4219060;28;5740;-66
2023/09/20 07:43:54;;;;;;;;;;;;;;;21.77;59.48;96762.56;4218887;28;6043;-66
2023/09/20 07:46:03;;;;;;;;;;;;;;;21.77;59.06;96766.03;4218585;28;5732;-66
2023/09/20 07:48:12;;;;;;;;;;;;;;;21.78;58.76;96754.22;4219011;28;5677;-66
2023/09/20 07:50:15;;;;;;;;;;;;;;;21.80;59.15;96753.94;4234655;28;5859;-66
2023/09/20 07:52:18;;;;;;;;;;;;;;;21.80;59.06;96756.63;4235337;28;5603;-66
2023/09/20 07:54:21;;;;;;;;;;;;;;;21.80;59.22;96749.38;4235749;28;5602;-66
2023/09/20 07:56:24;;;;;;;;;;;;;;;21.81;59.12;96763.63;4235504;28;5593;-66
2023/09/20 07:58:28;;;;;;;;;;;;;;;21.83;59.09;96755.28;4234365;28;5613;-66
2023/09/20 08:00:32;;;;;;;;;;;;;;;21.83;58.71;96758.78;4235401;28;5659;-66
2023/09/20 08:02:34;;;;;;;;;;;;;;;21.84;58.69;96760.41;4235581;28;5676;-66
2023/09/20 08:04:38;;;;;;;;;;;;;;;21.83;59.05;96758.78;4235307;28;5648;-67
2023/09/20 08:06:42;;;;;;;;;;;;;;;21.83;58.96;96763.34;4235212;28;6505;-66
2023/09/20 08:08:45;;;;;;;;;;;;;;;21.82;58.81;96754.47;4234488;28;5598;-66
2023/09/20 08:10:48;;;;;;;;;;;;;;;21.83;59.07;96758.78;4235190;28;5679;-66
2023/09/20 08:13:10;;;;;;;;;;;;;;;21.83;59.05;96758.78;4235405;28;5821;-66
2023/09/20 08:15:15;;;;;;;;;;;;;;;21.84;58.94;96754.22;4235564;28;5161;-66
2023/09/20 08:19:38;;;;;;;;;;;;;;;21.79;58.65;96765.78;4235155;28;5652;-66
2023/09/20 08:21:42;;;;;;;;;;;;;;;21.77;58.45;96759.84;4234896;28;5742;-66
2023/09/20 09:01:30;;;;;;;;;;;;;;;21.96;58.06;96763.66;4234633;28;5649;-66
2023/09/20 09:03:35;;;;;;;;;;;;;;;21.97;57.82;96764.47;4234586;28;5881;-66
2023/09/20 09:05:40;;;;;;;;;;;;;;;21.96;57.74;96769.03;4233232;28;7674;-66
2023/09/20 09:07:42;;;;;;;;;;;;;;;21.97;58.28;96765.28;4234320;28;5659;-66
2023/09/20 09:09:46;;;;;;;;;;;;;;;21.99;58.18;96765.84;4234409;28;5670;-66
2023/09/20 09:11:49;;;;;;;;;;;;;;;22.00;57.98;96763.94;4234234;28;5685;-66
2023/09/20 09:13:52;;;;;;;;;;;;;;;22.00;57.77;96754.00;4234274;28;5609;-66
2023/09/20 09:15:56;;;;;;;;;;;;;;;22.02;58.07;96753.72;4234181;28;6335;-66
2023/09/20 09:17:59;;;;;;;;;;;;;;;22.00;57.74;96762.06;4234406;28;5663;-66
2023/09/20 09:20:05;;;;;;;;;;;;;;;21.99;57.70;96765.84;4229845;28;5605;-66
2023/09/20 09:22:10;;;;;;;;;;;;;;;21.98;57.65;96761.53;4231677;28;5718;-66
2023/09/20 09:24:13;;;;;;;;;;;;;;;21.98;58.09;96750.75;4234754;28;5602;-79
2023/09/20 09:26:17;;;;;;;;;;;;;;;21.96;58.02;96755.56;4223750;28;5724;-74
2023/09/20 09:28:20;;;;;;;;;;;;;;;21.98;57.79;96745.38;4217536;28;5714;-73
2023/09/20 09:30:23;;;;;;;;;;;;;;;22.00;58.02;96745.91;4218011;28;5724;-70
2023/09/20 09:32:35;;;;;;;;;;;;;;;21.99;58.06;96749.69;4230464;28;5857;-72
2023/09/20 09:34:41;;;;;;;;;;;;;;;22.02;58.07;96742.94;4214481;28;5818;-71
2023/09/20 09:36:45;;;;;;;;;;;;;;;22.02;58.07;96746.44;4226200;28;7704;-70
2023/09/20 09:38:48;;;;;;;;;;;;;;;22.00;57.42;96745.91;4217484;28;5755;-74
2023/09/20 09:40:52;;;;;;;;;;;;;;;22.02;57.60;96742.94;4224368;28;5795;-66
2023/09/20 09:42:55;;;;;;;;;;;;;;;22.03;57.52;96736.50;4219926;28;5109;-69
2023/09/20 09:44:58;;;;;;;;;;;;;;;22.06;57.61;96738.66;4219485;28;5766;-71
2023/09/20 09:47:04;;;;;;;;;;;;;;;22.06;57.27;96736.78;4225953;28;5732;-67
2023/09/20 09:49:10;;;;;;;;;;;;;;;22.07;57.40;96732.22;4231056;28;7728;-68
2023/09/20 09:51:16;;;;;;;;;;;;;;;22.08;57.72;96729.28;4220852;28;5731;-67
2023/09/20 09:53:22;;;;;;;;;;;;;;;22.11;57.34;96729.81;4219316;28;5699;-67
2023/09/20 09:55:25;;;;;;;;;;;;;;;22.14;57.65;96730.06;4223611;28;5742;-67
2023/09/20 09:57:28;;;;;;;;;;;;;;;22.14;57.69;96722.00;4222941;28;5689;-67
2023/09/20 09:59:31;;;;;;;;;;;;;;;22.16;57.26;96724.41;4204234;28;5758;-66
2023/09/20 10:01:36;;;;;;;;;;;;;;;22.15;57.10;96725.50;4223900;28;5709;-65
2023/09/20 10:03:46;;;;;;;;;;;;;;;22.16;57.73;96716.34;4225224;28;5594;-65
2023/09/20 10:05:52;;;;;;;;;;;;;;;22.17;57.25;96715.25;4231052;28;5730;-64
2023/09/20 10:08:01;;;;;;;;;;;;;;;22.16;57.62;96714.44;4232970;28;5866;-65
2023/09/20 10:10:12;;;;;;;;;;;;;;;22.19;57.42;96723.88;4232907;28;6979;-65
2023/09/20 10:12:16;;;;;;;;;;;;;;;22.21;57.42;96719.84;4232865;28;5670;-65
2023/09/20 10:14:22;;;;;;;;;;;;;;;22.19;57.05;96713.09;4232780;28;5722;-65
2023/09/20 10:16:25;;;;;;;;;;;;;;;22.19;57.08;96713.91;4232700;28;5610;-65
2023/09/20 10:18:32;;;;;;;;;;;;;;;22.19;57.19;96708.53;4225888;28;5659;-65
2023/09/20 10:20:59;;;;;;;;;;;;;;;22.18;56.96;96706.91;4226753;28;5631;-65
2023/09/20 10:23:04;;;;;;;;;;;;;;;22.18;56.86;96700.72;4226633;28;5782;-65
2023/09/20 10:25:29;;;;;;;;;;;;;;;22.19;57.11;96700.44;4235744;28;5690;-65
2023/09/20 10:27:32;;;;;;;;;;;;;;;22.20;56.86;96693.16;4234921;28;5594;-65
2023/09/20 10:29:35;;;;;;;;;;;;;;;22.22;56.85;96696.44;4233807;28;5648;-65
2023/09/20 10:31:39;;;;;;;;;;;;;;;22.23;57.34;96680.00;4235539;28;5072;-65
2023/09/20 10:33:46;;;;;;;;;;;;;;;22.26;57.16;96681.34;4228300;28;5669;-65
2023/09/20 10:35:50;;;;;;;;;;;;;;;22.26;57.17;96675.94;4232480;28;5821;-65
2023/09/20 10:38:26;;;;;;;;;;;;;;;22.28;57.17;96679.97;4228369;28;5096;-65
2023/09/20 10:41:03;;;;;;;;;;;;;;;22.32;57.00;96674.88;4229654;28;5606;-65
2023/09/20 10:43:06;;;;;;;;;;;;;;;22.33;56.87;96671.13;4230289;28;5683;-65
2023/09/20 10:45:13;;;;;;;;;;;;;;;22.36;56.81;96667.88;4235898;28;5582;-65
2023/09/20 10:47:16;;;;;;;;;;;;;;;22.35;56.48;96663.56;4228986;28;5812;-65
2023/09/20 10:49:40;;;;;;;;;;;;;;;22.35;56.37;96663.56;4235203;28;5611;-65
2023/09/20 10:51:52;;;;;;;;;;;;;;;22.35;56.61;96658.97;4219545;28;5616;-65
2023/09/20 10:53:56;;;;;;;;;;;;;;;22.38;56.65;96661.13;4224569;28;5651;-65
2023/09/20 10:56:00;;;;;;;;;;;;;;;22.41;56.43;96650.88;4236576;28;6291;-65
2023/09/20 10:58:04;;;;;;;;;;;;;;;22.38;56.25;96655.75;4236359;28;5701;-65
2023/09/20 11:00:08;;;;;;;;;;;;;;;22.38;55.97;96650.34;4236513;28;5629;-65
2023/09/20 11:02:16;;;;;;;;;;;;;;;22.40;55.79;96650.06;4236466;28;5825;-65
2023/09/20 11:04:19;;;;;;;;;;;;;;;22.42;56.06;96647.91;4208257;28;5616;-65
2023/09/20 11:06:23;;;;;;;;;;;;;;;22.44;56.00;96644.97;4234587;28;5587;-64
2023/09/20 11:08:27;;;;;;;;;;;;;;;22.45;56.01;96644.69;4223214;28;5636;-65
2023/09/20 11:10:30;;;;;;;;;;;;;;;22.46;55.55;96643.63;4233447;28;5605;-64
2023/09/20 11:12:34;;;;;;;;;;;;;;;22.48;55.63;96640.66;4236356;28;5643;-64
2023/09/20 11:14:40;;;;;;;;;;;;;;;22.46;55.56;96627.47;4235488;28;5863;-64
2023/09/20 11:16:44;;;;;;;;;;;;;;;22.49;55.77;96631.47;4236465;28;5801;-64
2023/09/20 11:18:47;;;;;;;;;;;;;;;22.50;55.45;96639.28;4233965;28;5849;-64
2023/09/20 11:20:50;;;;;;;;;;;;;;;22.52;55.62;96636.31;4223416;28;5723;-64
2023/09/20 11:22:53;;;;;;;;;;;;;;;22.53;55.19;96627.16;4223568;28;5673;-64
2023/09/20 11:24:55;;;;;;;;;;;;;;;22.53;55.19;96632.53;4236088;28;5750;-64
2023/09/20 11:26:59;;;;;;;;;;;;;;;22.54;55.59;96629.59;4235642;28;5659;-64
2023/09/20 11:29:05;;;;;;;;;;;;;;;22.54;55.36;96632.28;4219141;28;6311;-65
2023/09/20 11:31:22;;;;;;;;;;;;;;;22.56;55.41;96629.31;4232975;28;5594;-65
2023/09/20 11:33:27;;;;;;;;;;;;;;;22.57;55.23;96631.75;4223750;28;6322;-64
2023/09/20 11:35:33;;;;;;;;;;;;;;;22.58;55.09;96624.47;4219957;28;5621;-64
2023/09/20 11:37:38;;;;;;;;;;;;;;;22.58;55.32;96625.28;4234998;28;5594;-64
2023/09/20 11:39:43;;;;;;;;;;;;;;;22.58;55.01;96625.28;4236044;28;5632;-65
2023/09/20 11:41:46;;;;;;;;;;;;;;;22.60;55.02;96620.41;4235296;28;5594;-65
2023/09/20 11:43:49;;;;;;;;;;;;;;;22.60;54.63;96619.59;4230076;28;5696;-65
2023/09/20 11:45:53;;;;;;;;;;;;;;;22.58;54.95;96614.50;4231238;27;5725;-64
2023/09/20 11:48:07;;;;;;;;;;;;;;;22.58;55.08;96611.81;4230153;28;5770;-62
2023/09/20 11:50:13;;;;;;;;;;;;;;;22.57;55.19;96612.88;4234437;28;5099;-61
2023/09/20 11:52:19;;;;;;;;;;;;;;;22.58;54.95;96608.31;4228352;28;5826;-65
2023/09/20 11:54:26;;;;;;;;;;;;;;;22.60;54.93;96600.75;4227261;28;5896;-65
2023/09/20 11:56:30;;;;;;;;;;;;;;;22.62;55.15;96596.69;4218834;28;5669;-66
2023/09/20 11:58:34;;;;;;;;;;;;;;;22.64;54.98;96591.81;4202456;28;5723;-66
2023/09/20 12:00:40;;;;;;;;;;;;;;;22.65;55.25;96585.38;4230133;28;5697;-66
2023/09/20 12:02:44;;;;;;;;;;;;;;;22.67;54.88;96591.31;4232210;28;5594;-66
2023/09/20 12:04:51;;;;;;;;;;;;;;;22.67;55.11;96580.53;4218125;28;5714;-66
2023/09/20 12:06:56;;;;;;;;;;;;;;;22.69;55.16;96579.44;4231557;28;5684;-64
2023/09/20 12:09:00;;;;;;;;;;;;;;;22.70;54.77;96579.16;4234702;28;5756;-65
2023/09/20 12:11:02;;;;;;;;;;;;;;;22.72;54.69;96576.19;4229514;28;5718;-66
2023/09/20 12:13:06;;;;;;;;;;;;;;;22.74;55.12;96571.31;4232870;28;5602;-66
2023/09/20 12:15:10;;;;;;;;;;;;;;;22.75;54.56;96565.66;4226619;28;5726;-65
2023/09/20 12:17:13;;;;;;;;;;;;;;;22.76;54.51;96561.06;4232671;28;5626;-66
2023/09/20 12:19:18;;;;;;;;;;;;;;;22.76;54.54;96561.06;4231199;28;5747;-70
2023/09/20 12:21:20;;;;;;;;;;;;;;;22.76;54.65;96553.78;4234606;28;6320;-69
2023/09/20 12:23:23;;;;;;;;;;;;;;;22.77;54.48;96554.63;4234906;28;5750;-71
2023/09/20 12:25:26;;;;;;;;;;;;;;;22.79;54.36;96549.75;4234675;28;6346;-71
2023/09/20 12:27:28;;;;;;;;;;;;;;;22.81;54.88;96552.97;4235074;28;5725;-72
2023/09/20 12:29:31;;;;;;;;;;;;;;;22.83;54.52;96551.63;4234820;28;5897;-71
2023/09/20 12:31:34;;;;;;;;;;;;;;;22.82;54.43;96538.41;4235186;28;5632;-71
2023/09/20 12:33:38;;;;;;;;;;;;;;;22.83;54.88;96540.03;4233682;28;5590;-71
2023/09/20 12:35:43;;;;;;;;;;;;;;;22.84;54.73;96541.66;4228668;28;5733;-70
2023/09/20 12:37:47;;;;;;;;;;;;;;;22.83;54.20;96524.69;4227368;28;5643;-70
2023/09/20 12:39:50;;;;;;;;;;;;;;;22.82;54.58;96517.66;4230290;28;5661;-71
2023/09/20 12:41:53;;;;;;;;;;;;;;;22.84;54.52;96520.09;4225820;28;5756;-71
2023/09/20 12:43:56;;;;;;;;;;;;;;;22.86;54.17;96513.34;4226494;28;5736;-72
2023/09/20 12:45:59;;;;;;;;;;;;;;;22.88;54.37;96511.22;4234037;28;5669;-71
2023/09/20 12:48:02;;;;;;;;;;;;;;;22.88;54.36;96510.41;4233993;28;5601;-71
2023/09/20 12:50:07;;;;;;;;;;;;;;;22.90;54.50;96502.84;4228495;28;5688;-70
2023/09/20 12:52:11;;;;;;;;;;;;;;;22.91;54.67;96499.84;4234397;28;5594;-71
2023/09/20 12:54:15;;;;;;;;;;;;;;;22.92;54.45;96490.69;4234754;28;5787;-71
2023/09/20 12:56:18;;;;;;;;;;;;;;;22.93;54.79;96486.91;4226945;28;5686;-71
2023/09/20 12:58:21;;;;;;;;;;;;;;;22.97;54.34;96491.72;4234941;28;6166;-71
2023/09/20 13:00:23;;;;;;;;;;;;;;;22.97;54.09;96491.72;4227215;28;7695;-71
2023/09/20 13:02:47;;;;;;;;;;;;;;;22.98;54.40;96491.44;4234393;27;5693;-71
2023/09/20 13:04:52;;;;;;;;;;;;;;;22.98;53.81;96480.66;4229648;28;5624;-71
2023/09/20 13:06:55;;;;;;;;;;;;;;;22.96;53.68;96477.44;4224302;28;5966;-71
2023/09/20 13:08:59;;;;;;;;;;;;;;;22.93;54.02;96475.31;4232880;28;5614;-69
2023/09/20 13:11:05;;;;;;;;;;;;;;;22.93;53.56;96465.34;4229304;28;5664;-74
2023/09/20 13:13:09;;;;;;;;;;;;;;;22.93;53.65;96468.03;4225943;28;5739;-75
2023/09/20 13:15:14;;;;;;;;;;;;;;;22.92;53.83;96468.31;4233682;28;5645;-71
2023/09/20 13:17:18;;;;;;;;;;;;;;;22.89;53.56;96458.09;4234735;28;5601;-78
2023/09/20 13:19:21;;;;;;;;;;;;;;;22.91;53.55;96461.31;4226432;28;5826;-74
2023/09/20 13:21:24;;;;;;;;;;;;;;;22.90;53.69;96459.72;4223411;28;5594;-71
2023/09/20 13:23:26;;;;;;;;;;;;;;;22.91;53.60;96454.03;4226038;28;5757;-73
2023/09/20 13:25:32;;;;;;;;;;;;;;;22.90;53.62;96444.34;4231178;28;5602;-72
2023/09/20 13:27:35;;;;;;;;;;;;;;;22.90;53.09;96438.16;4233914;28;5692;-73
2023/09/20 13:29:38;;;;;;;;;;;;;;;22.89;53.14;96439.25;4233641;28;5649;-76
2023/09/20 13:31:41;;;;;;;;;;;;;;;22.89;53.16;96434.66;4225979;28;5709;-75
2023/09/20 13:33:44;;;;;;;;;;;;;;;22.91;52.88;96437.88;4230895;28;5657;-76
2023/09/20 13:35:47;;;;;;;;;;;;;;;22.93;52.98;96430.31;4228194;28;5748;-75
2023/09/20 13:37:50;;;;;;;;;;;;;;;22.95;52.64;96424.63;4225258;28;5610;-75
2023/09/20 13:39:54;;;;;;;;;;;;;;;22.98;52.72;96417.84;4221311;28;5715;-75
2023/09/20 13:41:59;;;;;;;;;;;;;;;22.98;53.12;96413.28;4232213;28;5594;-78
2023/09/20 13:44:03;;;;;;;;;;;;;;;23.00;52.99;96421.91;4233595;28;5605;-82
2023/09/20 13:46:15;;;;;;;;;;;;;;;23.00;52.75;96416.50;4224845;28;5594;-85
2023/09/20 13:48:18;;;;;;;;;;;;;;;23.01;52.69;96412.72;4235032;28;5745;-84
2023/09/20 13:50:21;;;;;;;;;;;;;;;23.02;52.95;96398.16;4235035;28;5698;-83
2023/09/20 13:52:26;;;;;;;;;;;;;;;23.04;52.60;96405.97;4226625;28;5594;-86
2023/09/20 13:54:29;;;;;;;;;;;;;;;23.05;52.29;96397.59;4234756;28;5619;-86
2023/09/20 13:56:33;;;;;;;;;;;;;;;23.06;52.09;96399.19;4226502;28;5712;-74
2023/09/20 13:58:40;;;;;;;;;;;;;;;23.09;52.38;96392.44;4227709;28;5606;-73
2023/09/20 14:00:42;;;;;;;;;;;;;;;23.09;51.69;96390.53;4218976;28;5794;-74
2023/09/20 14:02:46;;;;;;;;;;;;;;;23.11;52.32;96390.28;4237431;28;5598;-74
2023/09/20 14:04:49;;;;;;;;;;;;;;;23.12;52.25;96381.09;4235867;28;5626;-74
2023/09/20 14:06:52;;;;;;;;;;;;;;;23.13;51.89;96378.13;4237398;28;5610;-74
2023/09/20 14:08:55;;;;;;;;;;;;;;;23.14;51.49;96379.72;4237667;28;5083;-74
2023/09/20 14:10:58;;;;;;;;;;;;;;;23.15;51.81;96381.34;4237331;28;5661;-74
2023/09/20 14:13:01;;;;;;;;;;;;;;;23.16;51.67;96372.16;4237308;28;5099;-74
2023/09/20 14:15:10;;;;;;;;;;;;;;;23.16;51.55;96355.97;4237490;28;5597;-74
2023/09/20 14:17:14;;;;;;;;;;;;;;;23.18;51.32;96364.56;4237664;28;5618;-74
2023/09/20 14:19:19;;;;;;;;;;;;;;;23.19;51.21;96360.00;4237073;28;5817;-74
2023/09/20 14:21:22;;;;;;;;;;;;;;;23.18;51.47;96361.88;4237165;28;5626;-73
2023/09/20 14:23:27;;;;;;;;;;;;;;;23.18;51.25;96359.19;4237264;28;5613;-73
2023/09/20 14:25:30;;;;;;;;;;;;;;;23.18;51.05;96359.19;4237228;28;5631;-74
2023/09/20 14:27:33;;;;;;;;;;;;;;;23.19;51.47;96357.28;4237043;28;5602;-74
2023/09/20 14:29:36;;;;;;;;;;;;;;;23.20;51.09;96356.19;4236295;28;5647;-74
2023/09/20 14:31:41;;;;;;;;;;;;;;;23.17;50.92;96351.38;4237040;27;5651;-74
2023/09/20 14:33:45;;;;;;;;;;;;;;;23.19;51.14;96349.22;4236973;28;5629;-75
2023/09/20 14:35:49;;;;;;;;;;;;;;;23.18;51.08;96343.00;4236695;28;5640;-74
2023/09/20 14:37:54;;;;;;;;;;;;;;;23.18;51.03;96343.00;4236664;28;5647;-74
2023/09/20 14:39:57;;;;;;;;;;;;;;;23.19;50.80;96339.22;4237199;28;5659;-74
2023/09/20 14:41:59;;;;;;;;;;;;;;;23.21;50.72;96331.66;4237053;27;5898;-74
2023/09/20 14:44:03;;;;;;;;;;;;;;;23.21;50.75;96331.66;4236956;27;5694;-74
2023/09/20 14:46:06;;;;;;;;;;;;;;;23.21;50.62;96317.34;4236746;28;5659;-74
2023/09/20 14:48:11;;;;;;;;;;;;;;;23.22;50.97;96321.69;4236788;28;5714;-74
2023/09/20 14:50:14;;;;;;;;;;;;;;;23.22;50.62;96327.88;4237026;28;5630;-74
2023/09/20 14:52:17;;;;;;;;;;;;;;;23.23;50.95;96321.41;4236484;28;6428;-74
2023/09/20 14:54:20;;;;;;;;;;;;;;;23.24;50.50;96319.50;4236876;28;5613;-74
2023/09/20 14:56:23;;;;;;;;;;;;;;;23.23;50.84;96317.91;4236639;28;5609;-74
2023/09/20 14:58:30;;;;;;;;;;;;;;;23.23;50.61;96329.50;4236747;28;5614;-74
2023/09/20 15:00:33;;;;;;;;;;;;;;;23.24;51.01;96319.50;4233677;27;5594;-74
2023/09/20 15:02:36;;;;;;;;;;;;;;;23.26;50.82;96316.53;4228596;28;5594;-74
2023/09/20 15:04:40;;;;;;;;;;;;;;;23.28;50.72;96317.03;4229884;28;5734;-74
2023/09/20 15:06:43;;;;;;;;;;;;;;;23.29;50.89;96310.56;4234951;28;5690;-74
2023/09/20 15:08:48;;;;;;;;;;;;;;;23.29;51.14;96300.56;4235714;28;5589;-74
2023/09/20 15:10:51;;;;;;;;;;;;;;;23.30;51.02;96295.97;4236320;28;5602;-74
2023/09/20 15:12:57;;;;;;;;;;;;;;;23.33;50.98;96298.09;4236282;28;5786;-74
2023/09/20 15:15:02;;;;;;;;;;;;;;;23.35;50.65;96287.84;4236580;28;6353;-74
2023/09/20 15:17:06;;;;;;;;;;;;;;;23.35;51.06;96294.03;4236462;27;5655;-73
2023/09/20 15:19:08;;;;;;;;;;;;;;;23.38;50.71;96289.97;4236097;28;5802;-73
2023/09/20 15:21:15;;;;;;;;;;;;;;;23.39;50.46;96278.88;4235799;28;5825;-73
2023/09/20 15:23:19;;;;;;;;;;;;;;;23.40;50.48;96277.00;4236272;28;5639;-69
2023/09/20 15:25:22;;;;;;;;;;;;;;;23.41;50.61;96273.19;4236317;28;5734;-69
2023/09/20 15:27:28;;;;;;;;;;;;;;;23.42;50.60;96272.09;4236020;28;5680;-69
2023/09/20 15:29:32;;;;;;;;;;;;;;;23.42;50.44;96272.91;4236246;28;5087;-69
2023/09/20 15:31:34;;;;;;;;;;;;;;;23.44;50.47;96269.91;4236015;28;5664;-69
2023/09/20 15:33:37;;;;;;;;;;;;;;;23.44;50.24;96267.22;4236179;27;5749;-69
2023/09/20 15:35:40;;;;;;;;;;;;;;;23.45;50.54;96260.75;4234499;27;5706;-68
2023/09/20 15:37:45;;;;;;;;;;;;;;;23.45;50.50;96258.88;4223128;28;5621;-69
2023/09/20 15:39:48;;;;;;;;;;;;;;;23.46;50.69;96246.97;4224404;28;5778;-69
2023/09/20 15:41:52;;;;;;;;;;;;;;;23.48;50.06;96244.78;4222264;28;5688;-69
2023/09/20 15:43:55;;;;;;;;;;;;;;;23.50;50.47;96250.69;4226792;28;5780;-69
2023/09/20 15:45:58;;;;;;;;;;;;;;;23.52;50.52;96247.72;4224633;28;5831;-69
2023/09/20 15:48:00;;;;;;;;;;;;;;;23.54;50.26;96250.91;4233773;28;5665;-69
2023/09/20 15:50:04;;;;;;;;;;;;;;;23.55;50.06;96239.03;4226567;28;5720;-70
2023/09/20 15:52:07;;;;;;;;;;;;;;;23.56;50.36;96232.56;4225823;28;6280;-67
2023/09/20 15:54:13;;;;;;;;;;;;;;;23.56;50.00;96235.25;4222037;28;5732;-67
2023/09/20 15:56:16;;;;;;;;;;;;;;;23.56;49.85;96235.25;4232088;28;5668;-69
2023/09/20 15:58:19;;;;;;;;;;;;;;;23.58;50.21;96230.41;4225020;28;5752;-73
2023/09/20 16:00:22;;;;;;;;;;;;;;;23.58;49.87;96226.88;4226127;28;5816;-77
2023/09/20 16:02:27;;;;;;;;;;;;;;;23.60;49.85;96230.91;4220874;28;5772;-76
2023/09/20 16:04:31;;;;;;;;;;;;;;;23.60;49.83;96230.91;4225971;28;6405;-76
2023/09/20 16:06:34;;;;;;;;;;;;;;;23.60;50.21;96225.53;4223869;28;5802;-76
2023/09/20 16:08:39;;;;;;;;;;;;;;;23.61;50.19;96221.72;4223702;28;6388;-76
2023/09/20 16:10:44;;;;;;;;;;;;;;;23.61;50.04;96218.22;4226073;28;5681;-77
2023/09/20 16:12:47;;;;;;;;;;;;;;;23.63;50.14;96224.94;4225915;28;5673;-77
2023/09/20 16:14:50;;;;;;;;;;;;;;;23.67;50.45;96217.88;4219670;28;5661;-77
2023/09/20 16:16:54;;;;;;;;;;;;;;;23.67;50.89;96209.78;4230575;28;5697;-76
2023/09/20 16:18:57;;;;;;;;;;;;;;;23.69;51.09;96215.69;4234880;28;5746;-78
2023/09/20 16:21:00;;;;;;;;;;;;;;;23.70;51.69;96211.09;4225805;28;5834;-76
2023/09/20 16:23:06;;;;;;;;;;;;;;;23.69;51.93;96215.69;4236168;28;5681;-76
2023/09/20 16:25:09;;;;;;;;;;;;;;;23.69;52.14;96213.00;4237242;28;5601;-76
2023/09/20 16:27:14;;;;;;;;;;;;;;;23.68;52.20;96211.38;4235533;28;5817;-76
2023/09/20 16:29:16;;;;;;;;;;;;;;;23.67;52.26;96211.66;4234591;28;5676;-76
2023/09/20 16:31:19;;;;;;;;;;;;;;;23.68;52.64;96211.38;4226030;28;5729;-76
2023/09/20 16:33:23;;;;;;;;;;;;;;;23.66;52.67;96200.06;4235193;28;5598;-76
2023/09/20 16:35:26;;;;;;;;;;;;;;;23.67;52.71;96208.97;4230268;28;5623;-76
2023/09/20 16:37:30;;;;;;;;;;;;;;;23.66;52.77;96205.47;4215540;28;5616;-75
2023/09/20 16:39:33;;;;;;;;;;;;;;;23.65;52.97;96198.47;4227815;28;5669;-76
2023/09/20 16:41:39;;;;;;;;;;;;;;;23.64;53.06;96199.56;4228947;28;5697;-76
2023/09/20 16:43:44;;;;;;;;;;;;;;;23.62;52.88;96201.75;4221530;28;5742;-75
2023/09/20 16:45:48;;;;;;;;;;;;;;;23.62;53.57;96196.34;4224835;28;5716;-75
2023/09/20 16:47:51;;;;;;;;;;;;;;;23.62;53.25;96201.75;4227371;28;5622;-76
2023/09/20 16:49:55;;;;;;;;;;;;;;;23.60;53.00;96193.16;4232851;28;5611;-76
2023/09/20 16:51:59;;;;;;;;;;;;;;;23.60;53.31;96195.84;4228516;28;5735;-76
2023/09/20 16:54:02;;;;;;;;;;;;;;;23.58;53.40;96199.91;4224182;28;5108;-76
2023/09/20 16:56:05;;;;;;;;;;;;;;;23.58;53.77;96205.28;4224833;28;5695;-75
2023/09/20 16:58:08;;;;;;;;;;;;;;;23.57;53.86;96203.69;4228676;28;5729;-76
2023/09/20 17:00:14;;;;;;;;;;;;;;;23.58;53.95;96199.91;4227784;28;5692;-75
2023/09/20 17:02:17;;;;;;;;;;;;;;;23.56;54.20;96202.91;4225796;28;5672;-75
2023/09/20 17:04:20;;;;;;;;;;;;;;;23.57;54.19;96193.69;4229173;28;5598;-75
2023/09/20 17:06:24;;;;;;;;;;;;;;;23.57;54.28;96192.91;4232637;28;5673;-74
2023/09/20 17:08:27;;;;;;;;;;;;;;;23.56;54.66;96197.50;4229283;28;6386;-75
2023/09/20 17:10:30;;;;;;;;;;;;;;;23.56;54.85;96193.97;4233545;28;5681;-74
2023/09/20 17:12:32;;;;;;;;;;;;;;;23.56;54.46;96189.41;4232266;28;5824;-75
2023/09/20 17:14:36;;;;;;;;;;;;;;;23.54;54.75;96192.38;4229829;27;5729;-75
2023/09/20 17:16:41;;;;;;;;;;;;;;;23.54;54.95;96191.56;4231793;28;5593;-75
2023/09/20 17:18:43;;;;;;;;;;;;;;;23.53;55.24;96190.75;4230181;28;5123;-75
2023/09/20 17:20:47;;;;;;;;;;;;;;;23.53;55.29;96192.66;4225419;28;5803;-75
2023/09/20 17:22:51;;;;;;;;;;;;;;;23.52;55.26;96191.06;4231058;27;5744;-75